Time;durP1;ratioP1;P1;durP2;ratioP2;P2;SDS_P1;SDS_P2;PMS_P1;PMS_P2;Temp;Humidity;BMP_temperature;BMP_pressure;BME280_temperature;BME280_humidity;BME280_pressure;Samples;Min_cycle;Max_cycle;Signal;HPM_P1;HPM_P2
2021/03/11 00:00:04;;;;;;;;;;;;;;;7.50;40.75;100841.97;4935309;28;96576;-83
2021/03/11 00:02:30;;;;;;;33.05;18.08;;;;;;;7.60;40.58;100846.16;4936229;28;96821;-83
2021/03/11 00:04:56;;;;;;;;;;;;;;;7.63;41.13;100841.69;4943498;28;99133;-83
2021/03/11 00:07:25;;;;;;;41.17;19.55;;;;;;;7.63;40.94;100818.03;4947996;28;99153;-83
2021/03/11 00:09:51;;;;;;;35.42;18.88;;;;;;;7.65;41.05;100813.63;4949338;28;96688;-83
2021/03/11 00:12:17;;;;;;;;;;;;;;;7.58;41.37;100810.25;4949184;28;96766;-83
2021/03/11 00:14:44;;;;;;;39.33;19.00;;;;;;;7.48;41.83;100808.75;4949989;28;99203;-82
2021/03/11 00:17:10;;;;;;;39.85;19.40;;;;;;;7.65;41.57;100798.69;4938772;28;97779;-82
2021/03/11 00:19:35;;;;;;;;;;;;;;;7.54;42.04;100800.72;4956251;28;96582;-82
2021/03/11 00:22:02;;;;;;;38.72;19.98;;;;;;;7.38;42.89;100794.06;4958704;28;97002;-82
2021/03/11 00:24:29;;;;;;;36.95;19.45;;;;;;;7.69;42.29;100787.19;4947348;28;97798;-83
2021/03/11 00:26:55;;;;;;;50.05;20.77;;;;;;;7.39;42.80;100787.91;4958844;28;98179;-82
2021/03/11 00:29:20;;;;;;;;;;;;;;;7.32;43.58;100779.28;4955207;28;97729;-83
2021/03/11 00:31:46;;;;;;;42.95;21.25;;;;;;;7.45;43.41;100779.88;4951736;28;96605;-83
2021/03/11 00:34:13;;;;;;;46.70;21.88;;;;;;;7.72;42.80;100775.75;4941167;28;98137;-82
2021/03/11 00:36:39;;;;;;;41.92;21.58;;;;;;;7.47;43.54;100768.44;4943041;28;98959;-82
2021/03/11 00:39:06;;;;;;;;;;;;;;;7.68;43.41;100755.69;4946021;28;96763;-82
2021/03/11 00:41:33;;;;;;;44.05;21.55;;;;;;;7.56;43.79;100752.44;4942914;28;96826;-82
2021/03/11 00:44:01;;;;;;;41.65;20.80;;;;;;;7.59;44.04;100748.88;4940732;28;99013;-82
2021/03/11 00:46:27;;;;;;;48.30;23.20;;;;;;;7.50;44.29;100735.94;4941834;28;97820;-82
2021/03/11 00:48:55;;;;;;;49.38;22.35;;;;;;;7.55;44.11;100737.56;4942057;28;96770;-82
2021/03/11 00:51:21;;;;;;;49.10;23.70;;;;;;;7.72;44.14;100720.53;4934724;28;96996;-82
2021/03/11 00:53:47;;;;;;;;;;;;;;;7.52;44.62;100713.97;4925889;28;97769;-83
2021/03/11 00:56:13;;;;;;;49.10;23.35;;;;;;;7.36;45.09;100712.59;4941849;28;97669;-82
2021/03/11 00:58:40;;;;;;;45.10;22.58;;;;;;;7.23;45.81;100695.38;4941698;28;97037;-82
2021/03/11 01:01:06;;;;;;;47.33;23.98;;;;;;;7.33;45.37;100680.25;4940429;28;98741;-83
2021/03/11 01:03:32;;;;;;;51.83;24.42;;;;;;;7.03;46.39;100666.03;4939677;28;99194;-82
2021/03/11 01:05:59;;;;;;;44.53;23.33;;;;;;;6.69;47.43;100658.03;4940721;28;99713;-83
2021/03/11 01:08:25;;;;;;;52.42;25.40;;;;;;;7.06;46.76;100655.47;4941775;28;97188;-83
2021/03/11 01:10:51;;;;;;;;;;;;;;;7.02;46.91;100653.81;4940524;28;98908;-83
2021/03/11 01:13:17;;;;;;;56.67;25.13;;;;;;;7.51;45.94;100661.41;4940097;28;97888;-82
2021/03/11 01:15:45;;;;;;;47.97;23.83;;;;;;;7.34;46.39;100653.09;4944963;28;100082;-83
2021/03/11 01:18:13;;;;;;;49.58;24.13;;;;;;;7.40;46.23;100640.66;4951024;28;98003;-83
2021/03/11 01:20:40;;;;;;;53.97;25.83;;;;;;;7.25;46.83;100648.03;4956929;28;97117;-84
2021/03/11 01:23:06;;;;;;;56.35;27.02;;;;;;;7.37;46.54;100647.72;4947287;28;98117;-84
2021/03/11 01:25:32;;;;;;;51.45;26.17;;;;;;;7.58;46.16;100637.56;4939011;28;98818;-83
2021/03/11 01:28:00;;;;;;;;;;;;;;;7.49;46.48;100632.53;4939572;28;96664;-83
2021/03/11 01:30:28;;;;;;;53.58;24.67;;;;;;;7.31;46.82;100635.59;4921441;28;97057;-83
2021/03/11 01:32:55;;;;;;;51.10;25.45;;;;;;;7.22;47.60;100620.03;4935950;28;99465;-81
2021/03/11 01:35:21;;;;;;;52.83;25.60;;;;;;;7.07;48.18;100610.78;4940132;28;99824;-83
2021/03/11 01:37:48;;;;;;;54.35;25.67;;;;;;;7.33;47.24;100617.19;4938856;28;96876;-83
2021/03/11 01:40:15;;;;;;;57.22;25.67;;;;;;;7.10;47.92;100599.31;4934523;28;96998;-82
2021/03/11 01:42:41;;;;;;;50.58;26.35;;;;;;;6.92;48.49;100592.72;4930856;28;97894;-81
2021/03/11 01:45:08;;;;;;;;;;;;;;;7.31;47.73;100592.69;4931909;28;99292;-82
2021/03/11 01:47:34;;;;;;;53.47;26.70;;;;;;;7.21;47.73;100586.81;4940091;28;97699;-82
2021/03/11 01:50:01;;;;;;;53.13;26.65;;;;;;;7.45;47.19;100569.56;4941359;28;97425;-82
2021/03/11 01:52:27;;;;;;;56.03;27.33;;;;;;;7.61;47.17;100576.16;4937362;28;98894;-80
2021/03/11 01:54:53;;;;;;;;;;;;;;;7.17;48.06;100564.97;4941695;28;98233;-82
2021/03/11 01:57:22;;;;;;;56.97;27.17;;;;;;;7.51;47.61;100561.50;4941494;28;96746;-81
2021/03/11 01:59:48;;;;;;;57.25;26.65;;;;;;;7.41;47.81;100562.66;4950007;28;97013;-82
2021/03/11 02:02:15;;;;;;;56.78;28.60;;;;;;;7.32;47.58;100547.97;4958023;28;97878;-82
2021/03/11 02:04:42;;;;;;;54.30;26.70;;;;;;;7.65;47.29;100545.38;4954953;28;97858;-82
2021/03/11 02:07:09;;;;;;;50.78;26.25;;;;;;;7.25;48.64;100537.66;4959872;28;95908;-81
2021/03/11 02:09:36;;;;;;;52.72;27.02;;;;;;;7.52;47.42;100535.19;4952291;28;96453;-82
2021/03/11 02:12:11;;;;;;;58.85;27.35;;;;;;;7.58;47.28;100531.53;4950723;28;98117;-83
2021/03/11 02:14:48;;;;;;;58.20;26.95;;;;;;;7.61;47.34;100524.41;4955908;28;99977;-80
2021/03/11 02:17:19;;;;;;;51.83;26.55;;;;;;;7.61;47.84;100519.13;4958410;28;96820;-82
2021/03/11 02:20:07;;;;;;;54.53;28.77;;;;;;;7.70;47.55;100517.16;4946848;28;96499;-81
2021/03/11 02:22:47;;;;;;;58.20;27.38;;;;;;;7.53;47.78;100507.97;4958474;28;98094;-83
2021/03/11 02:25:15;;;;;;;58.15;29.15;;;;;;;7.53;47.69;100499.22;4957053;28;99687;-81
2021/03/11 02:28:01;;;;;;;57.53;28.63;;;;;;;7.70;47.54;100486.47;4956702;28;97505;-82
2021/03/11 02:30:29;;;;;;;58.47;28.27;;;;;;;7.76;47.65;100480.19;4947454;28;96545;-83
2021/03/11 02:32:56;;;;;;;58.50;28.77;;;;;;;7.88;47.20;100485.09;4954395;28;98135;-83
2021/03/11 02:35:23;;;;;;;55.08;28.30;;;;;;;7.80;47.13;100481.84;4947597;28;97674;-82
2021/03/11 02:37:51;;;;;;;58.25;29.08;;;;;;;7.79;47.32;100480.09;4950479;28;96773;-82
2021/03/11 02:40:21;;;;;;;59.33;27.88;;;;;;;7.93;47.15;100476.19;4947940;28;97068;-82
2021/03/11 02:42:49;;;;;;;57.75;28.25;;;;;;;7.78;47.44;100484.50;4945301;28;99246;-81
2021/03/11 02:45:18;;;;;;;56.05;27.75;;;;;;;8.27;46.49;100469.91;4951764;28;98091;-82
2021/03/11 02:47:46;;;;;;;57.05;27.83;;;;;;;8.15;46.75;100463.22;4948026;28;96665;-82
2021/03/11 02:50:12;;;;;;;58.92;29.10;;;;;;;8.12;47.07;100457.22;4954614;28;96809;-83
2021/03/11 02:52:40;;;;;;;57.45;28.45;;;;;;;8.17;47.58;100450.91;4949200;28;97869;-83
2021/03/11 02:55:09;;;;;;;57.10;29.25;;;;;;;8.18;47.57;100442.09;4949183;28;98810;-84
2021/03/11 02:57:38;;;;;;;59.85;30.00;;;;;;;8.06;48.07;100437.22;4950094;28;96921;-82
2021/03/11 03:00:07;;;;;;;54.92;28.60;;;;;;;8.17;47.89;100428.97;4949087;28;96584;-84
2021/03/11 03:02:34;;;;;;;56.80;27.40;;;;;;;8.15;47.93;100421.13;4941715;28;97906;-83
2021/03/11 03:05:01;;;;;;;58.80;29.00;;;;;;;8.29;47.85;100424.19;4954550;28;98130;-82
2021/03/11 03:07:29;;;;;;;54.78;27.73;;;;;;;8.32;47.81;100415.38;4932315;28;96841;-83
2021/03/11 03:09:57;;;;;;;67.25;29.48;;;;;;;8.35;48.08;100408.25;4955956;28;96515;-84
2021/03/11 03:12:25;;;;;;;60.00;29.15;;;;;;;8.46;47.77;100401.78;4954056;28;98222;-81
2021/03/11 03:14:53;;;;;;;53.20;27.95;;;;;;;8.28;48.38;100403.19;4953268;28;98094;-82
2021/03/11 03:17:21;;;;;;;60.25;29.77;;;;;;;8.41;48.23;100404.53;4953045;28;96833;-83
2021/03/11 03:19:50;;;;;;;63.08;29.70;;;;;;;8.34;48.46;100393.34;4947167;28;96794;-83
2021/03/11 03:22:19;;;;;;;58.80;29.20;;;;;;;8.36;48.70;100393.31;4927563;28;97090;-82
2021/03/11 03:24:49;;;;;;;58.83;29.23;;;;;;;8.56;48.55;100396.16;4939816;28;98497;-83
2021/03/11 03:27:18;;;;;;;58.72;28.25;;;;;;;8.60;48.59;100384.59;4939502;28;96751;-82
2021/03/11 03:29:44;;;;;;;58.53;28.98;;;;;;;8.33;49.20;100391.66;4915711;28;96868;-84
2021/03/11 03:32:10;;;;;;;61.22;30.58;;;;;;;8.63;49.15;100376.59;4920402;28;99036;-83
2021/03/11 03:34:36;;;;;;;57.72;29.20;;;;;;;8.36;49.83;100374.88;4905233;28;97598;-82
2021/03/11 03:37:03;;;;;;;;;;;;;;;8.34;50.41;100364.38;4922645;28;97248;-83
2021/03/11 03:39:30;;;;;;;59.20;29.50;;;;;;;8.35;50.69;100358.22;4926102;28;96763;-82
2021/03/11 03:41:57;;;;;;;57.72;29.23;;;;;;;8.35;50.41;100347.69;4929781;28;99450;-81
2021/03/11 03:44:27;;;;;;;57.83;29.33;;;;;;;8.46;50.82;100335.97;4920626;28;99840;-82
2021/03/11 03:46:54;;;;;;;62.35;31.38;;;;;;;8.23;51.43;100334.88;4912972;28;96823;-83
2021/03/11 03:49:21;;;;;;;61.47;29.50;;;;;;;8.16;52.42;100322.84;4923894;28;96775;-82
2021/03/11 03:51:50;;;;;;;60.95;30.80;;;;;;;8.33;51.81;100325.84;4922336;28;97977;-82
2021/03/11 03:54:21;;;;;;;59.13;29.85;;;;;;;8.18;52.63;100304.38;4922009;28;98108;-81
2021/03/11 03:56:54;;;;;;;62.58;31.42;;;;;;;8.08;53.18;100309.06;4920180;28;97307;-83
2021/03/11 03:59:24;;;;;;;64.57;30.33;;;;;;;8.28;53.17;100296.13;4919718;28;96785;-84
2021/03/11 04:01:56;;;;;;;62.45;31.02;;;;;;;8.13;53.57;100285.25;4927631;28;99016;-82
2021/03/11 04:04:24;;;;;;;59.55;30.30;;;;;;;7.99;54.06;100257.63;4923158;28;100314;-82
2021/03/11 04:06:52;;;;;;;60.22;30.48;;;;;;;8.23;54.09;100255.94;4921946;28;96714;-83
2021/03/11 04:09:20;;;;;;;62.70;30.58;;;;;;;8.04;54.38;100246.94;4925821;28;96757;-83
2021/03/11 04:11:47;;;;;;;64.20;31.45;;;;;;;7.77;55.45;100237.28;4925846;28;99478;-82
2021/03/11 04:14:16;;;;;;;60.15;30.55;;;;;;;7.85;55.94;100233.53;4927936;28;99095;-81
2021/03/11 04:16:43;;;;;;;64.20;30.95;;;;;;;7.69;55.94;100232.28;4935149;28;96719;-83
2021/03/11 04:19:11;;;;;;;59.70;29.65;;;;;;;7.75;55.65;100225.97;4936296;28;97343;-83
2021/03/11 04:21:38;;;;;;;62.95;31.13;;;;;;;7.86;55.78;100229.13;4935955;28;99399;-83
2021/03/11 04:24:05;;;;;;;63.97;31.25;;;;;;;7.69;56.46;100224.38;4934889;28;97738;-83
2021/03/11 04:26:32;;;;;;;66.40;31.17;;;;;;;7.89;56.44;100221.13;4935734;28;96583;-84
2021/03/11 04:29:13;;;;;;;62.42;29.70;;;;;;;7.63;57.38;100205.31;4947798;28;96717;-85
2021/03/11 04:31:41;;;;;;;69.93;31.15;;;;;;;7.82;57.12;100190.66;4942204;28;99051;-83
2021/03/11 04:34:08;;;;;;;63.40;31.95;;;;;;;7.57;58.03;100188.84;4958143;28;97761;-83
2021/03/11 04:36:36;;;;;;;66.75;33.33;;;;;;;7.79;57.31;100178.50;4957707;28;97206;-82
2021/03/11 04:39:03;;;;;;;64.45;30.73;;;;;;;7.87;57.38;100168.56;4957657;28;96564;-83
2021/03/11 04:41:29;;;;;;;64.72;31.10;;;;;;;7.80;57.61;100161.81;4956290;28;97875;-83
2021/03/11 04:43:56;;;;;;;67.43;31.25;;;;;;;7.42;58.96;100159.53;4948419;28;99853;-83
2021/03/11 04:46:23;;;;;;;63.17;30.63;;;;;;;7.42;58.89;100149.88;4940673;28;96556;-82
2021/03/11 04:48:51;;;;;;;66.60;31.27;;;;;;;7.34;59.65;100145.78;4946374;28;96750;-83
2021/03/11 04:51:18;;;;;;;66.90;32.30;;;;;;;7.91;58.11;100137.75;4946900;28;99667;-83
2021/03/11 04:53:45;;;;;;;66.78;32.05;;;;;;;7.41;59.31;100137.66;4931872;28;98988;-83
2021/03/11 04:56:11;;;;;;;63.88;30.85;;;;;;;7.57;58.94;100128.34;4938534;28;96658;-82
2021/03/11 04:58:38;;;;;;;63.58;30.67;;;;;;;7.98;57.71;100126.09;4937783;28;96856;-82
2021/03/11 05:01:09;;;;;;;61.05;30.40;;;;;;;7.40;59.30;100121.94;4936176;28;101952;-82
2021/03/11 05:03:38;;;;;;;56.83;28.67;;;;;;;7.51;59.15;100107.53;4936130;28;98844;-81
2021/03/11 05:06:06;;;;;;;68.32;30.92;;;;;;;7.22;60.10;100104.97;4933869;28;97308;-83
2021/03/11 05:08:32;;;;;;;63.47;30.60;;;;;;;7.24;60.12;100092.66;4927599;28;96836;-83
2021/03/11 05:10:58;;;;;;;;;;;;;;;7.15;60.75;100071.94;4937114;28;98709;-82
2021/03/11 05:13:24;;;;;;;57.65;28.33;;;;;;;7.17;60.75;100080.63;4937653;28;98919;-82
2021/03/11 05:16:00;;;;;;;;;;;;;;;7.43;59.81;100070.13;4940646;28;96796;-84
2021/03/11 05:18:31;;;;;;;61.50;28.70;;;;;;;7.72;59.41;100068.28;4939388;28;96926;-84
2021/03/11 05:21:03;;;;;;;62.45;30.17;;;;;;;7.58;59.56;100060.88;4947163;28;98755;-83
2021/03/11 05:23:30;;;;;;;62.80;29.60;;;;;;;7.52;60.18;100053.19;4940715;28;97796;-84
2021/03/11 05:25:56;;;;;;;57.80;29.80;;;;;;;7.72;60.16;100037.59;4935479;28;96871;-83
2021/03/11 05:28:22;;;;;;;;;;;;;;;7.48;60.42;100030.56;4936010;28;96940;-83
2021/03/11 05:30:48;;;;;;;60.28;27.92;;;;;;;7.57;60.74;100043.38;4929948;28;99017;-84
2021/03/11 05:33:14;;;;;;;62.65;29.80;;;;;;;8.06;59.42;100026.72;4935311;28;99180;-83
2021/03/11 05:35:40;;;;;;;;;;;;;;;7.68;60.12;100029.88;4937800;28;97665;-83
2021/03/11 05:38:07;;;;;;;62.33;29.83;;;;;;;7.62;60.59;100030.91;4937946;28;97213;-82
2021/03/11 05:40:35;;;;;;;67.40;29.75;;;;;;;7.73;60.59;100012.16;4940067;28;100928;-82
2021/03/11 05:43:05;;;;;;;66.03;29.38;;;;;;;7.66;61.00;100019.41;4930339;28;99372;-84
2021/03/11 05:45:32;;;;;;;66.10;30.77;;;;;;;7.91;60.21;100017.59;4929166;28;98467;-83
2021/03/11 05:47:59;;;;;;;61.28;29.42;;;;;;;7.63;60.91;100002.84;4943771;28;97858;-83
2021/03/11 05:50:26;;;;;;;68.72;31.90;;;;;;;7.90;60.71;100007.13;4932092;28;97660;-84
2021/03/11 05:52:53;;;;;;;62.45;29.52;;;;;;;7.91;59.92;99991.31;4936294;28;98895;-83
2021/03/11 05:55:20;;;;;;;59.00;29.95;;;;;;;7.74;61.18;99982.31;4935547;28;97103;-84
2021/03/11 05:57:47;;;;;;;62.95;29.38;;;;;;;7.30;62.97;99976.81;4940026;28;96781;-83
2021/03/11 06:00:16;;;;;;;73.03;32.15;;;;;;;7.63;61.55;99985.31;4938917;28;99438;-84
2021/03/11 06:02:43;;;;;;;63.92;30.42;;;;;;;7.75;61.66;99965.59;4932751;28;100668;-84
2021/03/11 06:05:13;;;;;;;66.40;31.95;;;;;;;7.32;63.38;99963.63;4940626;28;98395;-81
2021/03/11 06:07:44;;;;;;;65.25;30.25;;;;;;;7.86;62.46;99961.69;4931768;28;96811;-81
2021/03/11 06:10:11;;;;;;;62.33;29.92;;;;;;;7.79;62.32;99957.56;4927361;28;97841;-84
2021/03/11 06:12:37;;;;;;;72.10;31.55;;;;;;;7.74;62.65;99941.09;4937010;28;102345;-83
2021/03/11 06:15:07;;;;;;;;;;;;;;;7.58;63.20;99940.78;4949913;28;96825;-84
2021/03/11 06:17:35;;;;;;;62.83;29.10;;;;;;;7.87;62.28;99934.47;4946342;28;96681;-82
2021/03/11 06:20:01;;;;;;;60.17;29.40;;;;;;;7.70;62.67;99936.84;4957147;28;97778;-82
2021/03/11 06:22:28;;;;;;;;;;;;;;;7.59;63.51;99931.97;4947589;28;101210;-83
2021/03/11 06:24:54;;;;;;;64.65;30.23;;;;;;;7.71;64.26;99925.41;4943936;28;96719;-83
2021/03/11 06:27:21;;;;;;;62.22;29.42;;;;;;;7.53;64.14;99921.69;4936477;28;97173;-83
2021/03/11 06:29:47;;;;;;;75.22;30.70;;;;;;;7.66;64.40;99921.25;4937713;28;98207;-84
2021/03/11 06:32:14;;;;;;;67.28;31.27;;;;;;;7.47;65.04;99911.41;4936069;28;98809;-82
2021/03/11 06:34:43;;;;;;;64.85;31.45;;;;;;;7.87;63.88;99910.78;4932504;28;97782;-83
2021/03/11 06:37:10;;;;;;;68.78;30.73;;;;;;;7.92;63.64;99898.31;4938711;28;97189;-83
2021/03/11 06:39:40;;;;;;;70.10;31.90;;;;;;;7.66;64.71;99890.56;4935804;28;101621;-83
2021/03/11 06:42:08;;;;;;;65.22;30.92;;;;;;;7.83;64.26;99884.66;4936102;28;98848;-83
2021/03/11 06:44:48;;;;;;;67.00;30.85;;;;;;;7.59;66.10;99868.88;4932490;28;97353;-83
2021/03/11 06:47:18;;;;;;;69.22;32.13;;;;;;;7.63;65.68;99868.75;4946015;28;96604;-84
2021/03/11 06:50:06;;;;;;;66.22;32.33;;;;;;;7.80;65.67;99882.16;4943845;28;101054;-84
2021/03/11 06:52:34;;;;;;;70.28;33.75;;;;;;;7.24;67.81;99868.44;4943122;28;99189;-82
2021/03/11 06:55:03;;;;;;;76.15;32.42;;;;;;;7.70;66.60;99857.09;4948159;28;96889;-84
2021/03/11 06:57:32;;;;;;;68.82;32.22;;;;;;;7.86;65.87;99869.63;4947751;28;96724;-83
2021/03/11 06:59:59;;;;;;;68.55;31.23;;;;;;;7.41;67.04;99863.44;4948192;28;100053;-82
2021/03/11 07:02:28;;;;;;;69.00;30.67;;;;;;;7.78;66.63;99858.53;4944360;28;100773;-84
2021/03/11 07:04:55;;;;;;;65.78;31.05;;;;;;;7.57;67.88;99839.16;4949034;28;96957;-82
2021/03/11 07:07:23;;;;;;;67.28;32.58;;;;;;;7.65;67.10;99845.91;4948758;28;96759;-82
2021/03/11 07:09:52;;;;;;;66.68;30.73;;;;;;;8.04;66.37;99851.41;4951257;28;100384;-83
2021/03/11 07:12:19;;;;;;;68.35;31.13;;;;;;;8.04;66.13;99839.09;4959715;28;101394;-82
2021/03/11 07:14:48;;;;;;;61.28;30.35;;;;;;;8.01;66.11;99836.56;4956159;28;96837;-83
2021/03/11 07:17:21;;;;;;;66.30;30.35;;;;;;;8.22;65.21;99817.31;4953786;28;95967;-82
2021/03/11 07:20:08;;;;;;;65.47;30.95;;;;;;;7.80;67.00;99819.03;4949148;28;97994;-85
2021/03/11 07:22:34;;;;;;;46.63;22.50;;;;;;;7.69;67.02;99815.94;4947338;28;98905;-82
2021/03/11 07:25:01;;;;;;;61.30;29.13;;;;;;;7.47;67.35;99806.25;4939376;28;98053;-82
2021/03/11 07:27:38;;;;;;;62.08;28.17;;;;;;;7.54;67.90;99822.66;4944093;28;97136;-81
2021/03/11 07:30:06;;;;;;;59.45;29.27;;;;;;;8.01;66.11;99823.41;4952685;28;99324;-82
2021/03/11 07:32:34;;;;;;;59.22;28.33;;;;;;;8.19;65.38;99811.34;4953268;28;97793;-84
2021/03/11 07:35:01;;;;;;;62.28;28.40;;;;;;;8.42;64.76;99808.63;4958214;28;95837;-84
2021/03/11 07:37:29;;;;;;;55.60;27.73;;;;;;;7.79;66.34;99809.41;4936974;28;96758;-83
2021/03/11 07:39:59;;;;;;;56.63;27.05;;;;;;;7.94;66.32;99803.56;4944153;28;99547;-83
2021/03/11 07:42:26;;;;;;;55.92;26.80;;;;;;;7.88;66.73;99806.41;4936001;28;99994;-84
2021/03/11 07:44:53;;;;;;;58.95;27.42;;;;;;;8.24;65.43;99806.72;4936885;28;98004;-81
2021/03/11 07:47:21;;;;;;;51.40;26.45;;;;;;;8.43;64.39;99793.69;4934478;28;97479;-80
2021/03/11 07:49:47;;;;;;;53.22;26.38;;;;;;;8.62;63.61;99778.81;4934298;28;100995;-82
2021/03/11 07:52:14;;;;;;;52.58;25.75;;;;;;;8.40;64.15;99779.72;4935646;28;97720;-82
2021/03/11 07:54:40;;;;;;;49.75;24.08;;;;;;;8.36;64.82;99778.16;4938883;28;97367;-82
2021/03/11 07:57:13;;;;;;;49.13;25.38;;;;;;;8.49;64.33;99773.22;4939816;28;97792;-83
2021/03/11 07:59:44;;;;;;;50.10;25.88;;;;;;;8.52;64.52;99777.53;4935045;28;99460;-81
2021/03/11 08:02:13;;;;;;;52.60;25.33;;;;;;;8.54;64.42;99776.53;4938191;28;98943;-83
2021/03/11 08:04:42;;;;;;;51.55;24.27;;;;;;;8.73;64.41;99766.03;4936059;28;97770;-82
2021/03/11 08:07:16;;;;;;;44.08;23.88;;;;;;;8.93;63.81;99773.06;4939680;28;97474;-84
2021/03/11 08:09:44;;;;;;;47.67;24.45;;;;;;;9.07;63.63;99754.88;4929249;28;99518;-81
2021/03/11 08:12:34;;;;;;;49.63;25.92;;;;;;;8.72;64.67;99753.81;4932506;28;98674;-81
2021/03/11 08:15:03;;;;;;;51.15;25.55;;;;;;;8.73;64.72;99742.34;4931971;28;98584;-83
2021/03/11 08:17:43;;;;;;;50.95;25.52;;;;;;;8.90;64.30;99742.47;4933256;28;97230;-83
2021/03/11 08:20:37;;;;;;;52.80;26.05;;;;;;;8.56;65.44;99755.41;4932347;28;98122;-83
2021/03/11 08:23:06;;;;;;;54.67;26.77;;;;;;;8.53;66.46;99750.28;4929148;28;98501;-83
2021/03/11 08:25:58;;;;;;;48.35;24.58;;;;;;;8.75;65.13;99754.53;4947570;28;96908;-83
2021/03/11 08:28:46;;;;;;;54.33;26.52;;;;;;;9.04;64.37;99740.09;4929916;28;97073;-83
2021/03/11 08:31:12;;;;;;;55.10;25.98;;;;;;;9.30;64.03;99735.41;4931999;28;99295;-83
2021/03/11 08:33:46;;;;;;;52.10;26.15;;;;;;;9.18;63.95;99732.41;4941929;28;99229;-83
2021/03/11 08:36:36;;;;;;;50.58;26.00;;;;;;;8.84;65.25;99728.72;4939091;28;96822;-85
2021/03/11 08:39:17;;;;;;;48.50;24.92;;;;;;;8.56;66.32;99729.06;4932963;28;96752;-83
2021/03/11 08:41:47;;;;;;;48.75;25.48;;;;;;;8.99;65.29;99722.78;4919991;28;99066;-83
2021/03/11 08:44:13;;;;;;;49.83;24.25;;;;;;;8.98;65.39;99724.56;4938759;28;98045;-84
2021/03/11 08:46:53;;;;;;;43.70;23.75;;;;;;;9.20;64.77;99711.22;4922894;28;96993;-84
2021/03/11 08:49:43;;;;;;;51.92;25.20;;;;;;;9.28;64.46;99714.38;4934683;28;96769;-85
2021/03/11 08:52:40;;;;;;;49.97;24.35;;;;;;;9.00;66.21;99722.69;4935648;28;101437;-82
2021/03/11 08:55:36;;;;;;;47.88;25.42;;;;;;;9.16;65.83;99700.00;4936279;28;99371;-84
2021/03/11 08:58:04;;;;;;;52.60;25.25;;;;;;;8.94;66.23;99699.25;4939555;28;96992;-81
2021/03/11 09:01:04;;;;;;;47.92;23.50;;;;;;;8.30;68.46;99682.78;4943262;28;96881;-82
2021/03/11 09:03:38;;;;;;;47.47;24.83;;;;;;;8.60;68.26;99689.34;4898514;28;98076;-83
2021/03/11 09:06:06;;;;;;;50.15;24.95;;;;;;;8.87;66.70;99694.31;4903197;28;97900;-82
2021/03/11 09:08:32;;;;;;;48.42;24.50;;;;;;;9.09;66.70;99690.66;4924633;28;97286;-82
2021/03/11 09:11:06;;;;;;;;;;;;;;;9.11;66.40;99698.50;4944842;28;96898;-84
2021/03/11 09:13:33;;;;;;;51.45;25.63;;;;;;;9.20;65.80;99692.78;4945862;28;100928;-86
2021/03/11 09:16:00;;;;;;;52.00;24.25;;;;;;;9.29;65.08;99686.22;4946596;28;97675;-86
2021/03/11 09:18:28;;;;;;;47.33;23.88;;;;;;;8.57;67.88;99692.13;4950064;28;96636;-84
2021/03/11 09:23:58;;;;;;;52.72;26.00;;;;;;;9.31;65.37;99690.53;4944557;28;99545;-85
2021/03/11 09:26:28;;;;;;;46.15;23.73;;;;;;;9.34;65.30;99686.88;4943201;28;100277;-86
2021/03/11 09:28:55;;;;;;;49.50;23.42;;;;;;;9.29;64.93;99683.59;4944730;28;96783;-84
2021/03/11 09:31:23;;;;;;;44.42;23.10;;;;;;;9.19;65.09;99683.16;4945653;28;96843;-84
2021/03/11 09:33:53;;;;;;;40.90;21.20;;;;;;;9.24;65.56;99680.31;4938795;28;99023;-86
2021/03/11 09:36:20;;;;;;;46.28;24.08;;;;;;;9.35;65.35;99680.66;4942262;28;97558;-84
2021/03/11 09:38:46;;;;;;;45.53;22.67;;;;;;;9.57;64.92;99668.19;4942634;28;96763;-85
2021/03/11 09:41:13;;;;;;;47.13;22.20;;;;;;;9.13;66.42;99651.81;4949889;28;96711;-84
2021/03/11 09:43:41;;;;;;;40.78;22.55;;;;;;;8.69;67.34;99646.81;4951724;28;98718;-85
2021/03/11 09:46:10;;;;;;;44.78;22.92;;;;;;;9.39;65.77;99640.03;4953264;28;100060;-83
2021/03/11 09:48:39;;;;;;;43.15;22.48;;;;;;;9.40;65.20;99649.66;4955381;28;96467;-84
2021/03/11 09:51:24;;;;;;;42.67;22.15;;;;;;;9.69;64.99;99635.94;4954279;28;97716;-85
2021/03/11 09:53:53;;;;;;;43.53;24.05;;;;;;;9.63;65.10;99620.41;4952767;28;99765;-85
2021/03/11 09:56:23;;;;;;;45.13;22.02;;;;;;;9.64;64.80;99637.09;4951741;28;98359;-85
2021/03/11 09:58:52;;;;;;;42.30;20.90;;;;;;;9.63;64.96;99611.63;4938250;28;96578;-86
2021/03/11 10:01:30;;;;;;;43.03;21.80;;;;;;;9.84;64.05;99631.69;4937155;28;96632;-84
2021/03/11 10:03:57;;;;;;;35.47;19.42;;;;;;;10.10;63.73;99612.75;4943797;28;97992;-83
2021/03/11 10:06:24;;;;;;;37.83;19.27;;;;;;;9.89;64.00;99614.69;4950704;28;98208;-83
2021/03/11 10:08:55;;;;;;;38.13;20.38;;;;;;;10.14;63.23;99602.88;4926578;28;98519;-84
2021/03/11 10:11:25;;;;;;;35.75;19.05;;;;;;;9.95;63.90;99606.44;4933848;28;97180;-83
2021/03/11 10:13:57;;;;;;;43.08;19.63;;;;;;;10.24;63.14;99606.78;4945034;28;99009;-85
2021/03/11 10:16:42;;;;;;;35.30;19.10;;;;;;;10.13;63.56;99609.06;4942099;28;99016;-85
2021/03/11 10:19:11;;;;;;;35.97;19.08;;;;;;;10.34;63.04;99597.44;4946769;28;97726;-84
2021/03/11 10:21:52;;;;;;;35.97;19.70;;;;;;;10.42;62.71;99607.59;4945973;28;96893;-85
2021/03/11 10:24:36;;;;;;;33.70;18.98;;;;;;;10.34;62.75;99622.06;4942635;28;98020;-85
2021/03/11 10:27:04;;;;;;;31.13;17.50;;;;;;;10.24;62.80;99612.88;4945155;28;97642;-84
2021/03/11 10:29:31;;;;;;;36.63;18.27;;;;;;;10.43;62.60;99596.09;4948247;28;96940;-86
2021/03/11 10:32:00;;;;;;;29.88;16.80;;;;;;;10.47;62.59;99589.72;4946174;28;97164;-84
2021/03/11 10:34:29;;;;;;;32.92;17.00;;;;;;;9.93;64.23;99608.31;4938321;28;99097;-85
2021/03/11 10:36:57;;;;;;;29.13;17.42;;;;;;;10.18;63.50;99588.59;4940272;28;96815;-85
2021/03/11 10:39:24;;;;;;;31.08;17.33;;;;;;;10.16;63.93;99579.88;4948472;28;96771;-83
2021/03/11 10:42:00;;;;;;;32.47;16.00;;;;;;;10.31;63.43;99576.47;4941084;28;97089;-84
2021/03/11 10:44:28;;;;;;;27.20;15.45;;;;;;;10.41;63.48;99569.78;4938877;28;99093;-84
2021/03/11 10:47:12;;;;;;;32.72;17.17;;;;;;;10.72;62.69;99574.25;4945848;28;97815;-83
2021/03/11 10:49:39;;;;;;;32.05;16.35;;;;;;;10.96;61.63;99572.06;4947321;28;96662;-85
2021/03/11 10:52:06;;;;;;;30.13;15.77;;;;;;;10.93;62.25;99545.78;4951267;28;96861;-87
2021/03/11 10:54:32;;;;;;;30.52;16.67;;;;;;;11.32;60.67;99551.47;4948119;28;98009;-84
2021/03/11 10:57:06;;;;;;;28.20;15.48;;;;;;;10.94;61.37;99537.78;4944640;28;97768;-83
2021/03/11 10:59:46;;;;;;;29.85;15.65;;;;;;;11.22;60.86;99510.63;4941754;28;96768;-86
2021/03/11 11:02:13;;;;;;;25.10;15.80;;;;;;;11.53;60.20;99526.44;4942715;28;96842;-85
2021/03/11 11:04:40;;;;;;;31.20;17.08;;;;;;;11.74;59.78;99536.72;4958942;28;98190;-85
2021/03/11 11:07:06;;;;;;;25.67;15.50;;;;;;;11.82;59.29;99526.50;4948999;28;97754;-83
2021/03/11 11:09:32;;;;;;;31.48;17.60;;;;;;;11.81;60.25;99512.44;4939963;28;96841;-83
2021/03/11 11:14:39;;;;;;;31.20;15.00;;;;;;;12.51;57.65;99492.22;4937620;28;99393;-85
2021/03/11 11:17:05;;;;;;;23.48;14.32;;;;;;;12.01;59.33;99490.06;4941543;28;98859;-85
2021/03/11 11:19:32;;;;;;;;;;;;;;;12.05;59.34;99480.97;4938359;28;96958;-80
2021/03/11 11:21:59;;;;;;;23.45;13.43;;;;;;;12.64;57.79;99484.34;4940918;28;96895;-84
2021/03/11 11:24:26;;;;;;;25.70;13.85;;;;;;;12.82;57.41;99483.16;4940908;28;96958;-86
2021/03/11 11:26:54;;;;;;;21.23;13.05;;;;;;;12.86;56.62;99468.78;4939381;28;99226;-84
2021/03/11 11:29:20;;;;;;;19.65;12.00;;;;;;;12.25;57.55;99440.88;4940295;28;97226;-84
2021/03/11 11:31:45;;;;;;;;;;;;;;;12.30;58.09;99444.09;4942078;28;96791;-84
2021/03/11 11:34:11;;;;;;;20.05;11.77;;;;;;;12.24;58.37;99435.66;4939962;28;99171;-84
2021/03/11 11:36:38;;;;;;;;;;;;;;;12.62;57.84;99430.56;4945636;28;98191;-84
2021/03/11 11:39:05;;;;;;;20.52;12.38;;;;;;;12.55;57.24;99411.56;4942381;28;96840;-84
2021/03/11 11:41:32;;;;;;;17.75;11.73;;;;;;;12.66;57.14;99409.09;4941386;28;96904;-84